Country
Station

 

Weather  for  New Orleans, Naval Air Station  -  United States    United States

  
33 °C (91 °F)
    
 
 

Current METAR for New Orleans, Naval Air Station is :

KNBG 201955Z 20017KT 7SM SCT034 BKN041 BKN120 BKN250 33/27 A2991 RMK AO2 SLP127 T03280267 $

 

This is a report for New Orleans, Naval Air Station - United States.
 
The report was made 29 minutes ago, at 19:55 UTC .
The wind was blowing at a speed of 8.7 meters per second (19.6 miles per hour) from south/southwest (200°).
 
The temperature was 33 °C (91 °F), with a dew-point at 27 °C (81 °F).
The temperature felt like 43 °C (110 °F).
 
The atmospheric pressure was 1013 hPa (29.91 inHg).
The relative humidity was 70.9%.
 
There were scattered clouds at a height of 1036 meters (3400 feet), broken clouds at a height of 1250 meters (4100 feet) and broken clouds at a height of 3658 meters (12000 feet).
 
The overall visibility was 11.3 kilometers (7.0 miles).
 

 
 
 
 

Country :   A   B   C   D   E   F   G   H   I   J   K   L   M   N   O   P   Q   R   S   T   U   V   W   Y   Z

 

Site Info  |  Disclaimer  |  Credits  |  Privacy
Contact us  |  Add to favorites
© 2013-2019 METARs - All rights reserved